sensor_id;sensor_type;location;lat;lon;timestamp;P1;durP1;ratioP1;P2;durP2;ratioP2
36211;SDS011;22247;48.586;13.492;2023-07-24T00:01:45;12.55;;;6.18;;
36211;SDS011;22247;48.586;13.492;2023-07-24T00:04:10;18.38;;;6.80;;
36211;SDS011;22247;48.586;13.492;2023-07-24T00:06:38;15.25;;;6.50;;
36211;SDS011;22247;48.586;13.492;2023-07-24T00:09:03;17.13;;;6.68;;
36211;SDS011;22247;48.586;13.492;2023-07-24T00:11:28;13.32;;;6.20;;
36211;SDS011;22247;48.586;13.492;2023-07-24T00:13:53;13.77;;;6.75;;
36211;SDS011;22247;48.586;13.492;2023-07-24T00:16:18;12.80;;;6.25;;
36211;SDS011;22247;48.586;13.492;2023-07-24T00:18:43;14.88;;;6.22;;
36211;SDS011;22247;48.586;13.492;2023-07-24T00:21:08;14.05;;;6.45;;
36211;SDS011;22247;48.586;13.492;2023-07-24T00:23:34;13.32;;;6.90;;
36211;SDS011;22247;48.586;13.492;2023-07-24T00:25:59;14.50;;;6.80;;
36211;SDS011;22247;48.586;13.492;2023-07-24T00:28:24;15.20;;;6.72;;
36211;SDS011;22247;48.586;13.492;2023-07-24T00:30:49;13.25;;;6.70;;
36211;SDS011;22247;48.586;13.492;2023-07-24T00:33:14;14.10;;;6.90;;
36211;SDS011;22247;48.586;13.492;2023-07-24T00:35:39;15.65;;;5.88;;
36211;SDS011;22247;48.586;13.492;2023-07-24T00:38:04;14.40;;;6.72;;
36211;SDS011;22247;48.586;13.492;2023-07-24T00:40:29;14.45;;;6.40;;
36211;SDS011;22247;48.586;13.492;2023-07-24T00:42:54;12.80;;;6.30;;
36211;SDS011;22247;48.586;13.492;2023-07-24T00:45:19;16.38;;;7.18;;
36211;SDS011;22247;48.586;13.492;2023-07-24T00:47:44;13.40;;;6.70;;
36211;SDS011;22247;48.586;13.492;2023-07-24T00:50:09;16.42;;;7.00;;
36211;SDS011;22247;48.586;13.492;2023-07-24T00:52:37;13.77;;;6.60;;
36211;SDS011;22247;48.586;13.492;2023-07-24T00:55:02;14.48;;;7.07;;
36211;SDS011;22247;48.586;13.492;2023-07-24T00:57:28;14.30;;;6.97;;
36211;SDS011;22247;48.586;13.492;2023-07-24T00:59:55;15.20;;;6.95;;
36211;SDS011;22247;48.586;13.492;2023-07-24T01:02:20;15.20;;;6.97;;
36211;SDS011;22247;48.586;13.492;2023-07-24T01:04:45;14.02;;;6.40;;
36211;SDS011;22247;48.586;13.492;2023-07-24T01:07:13;19.65;;;7.53;;
36211;SDS011;22247;48.586;13.492;2023-07-24T01:09:40;17.10;;;7.60;;
36211;SDS011;22247;48.586;13.492;2023-07-24T01:12:10;20.10;;;6.93;;
36211;SDS011;22247;48.586;13.492;2023-07-24T01:14:46;16.65;;;6.68;;
36211;SDS011;22247;48.586;13.492;2023-07-24T01:17:12;15.30;;;6.68;;
36211;SDS011;22247;48.586;13.492;2023-07-24T01:22:10;15.65;;;6.63;;
36211;SDS011;22247;48.586;13.492;2023-07-24T01:24:39;13.25;;;6.63;;
36211;SDS011;22247;48.586;13.492;2023-07-24T01:27:06;15.52;;;6.68;;
36211;SDS011;22247;48.586;13.492;2023-07-24T01:29:31;13.35;;;6.53;;
36211;SDS011;22247;48.586;13.492;2023-07-24T01:31:57;13.75;;;6.85;;
36211;SDS011;22247;48.586;13.492;2023-07-24T01:34:22;16.90;;;7.50;;
36211;SDS011;22247;48.586;13.492;2023-07-24T01:36:47;17.05;;;7.60;;
36211;SDS011;22247;48.586;13.492;2023-07-24T01:39:12;16.45;;;7.15;;
36211;SDS011;22247;48.586;13.492;2023-07-24T01:41:38;15.77;;;7.07;;
36211;SDS011;22247;48.586;13.492;2023-07-24T01:44:03;15.35;;;6.95;;
36211;SDS011;22247;48.586;13.492;2023-07-24T01:46:32;13.32;;;6.72;;
36211;SDS011;22247;48.586;13.492;2023-07-24T01:51:22;24.13;;;7.20;;
36211;SDS011;22247;48.586;13.492;2023-07-24T01:53:47;17.25;;;8.00;;
36211;SDS011;22247;48.586;13.492;2023-07-24T01:58:39;12.93;;;5.90;;
36211;SDS011;22247;48.586;13.492;2023-07-24T02:01:07;17.02;;;6.70;;
36211;SDS011;22247;48.586;13.492;2023-07-24T02:03:32;15.60;;;6.60;;
36211;SDS011;22247;48.586;13.492;2023-07-24T02:08:24;17.87;;;7.37;;
36211;SDS011;22247;48.586;13.492;2023-07-24T02:10:49;14.70;;;6.18;;
36211;SDS011;22247;48.586;13.492;2023-07-24T02:13:17;17.15;;;6.75;;
36211;SDS011;22247;48.586;13.492;2023-07-24T02:18:07;15.73;;;6.80;;
36211;SDS011;22247;48.586;13.492;2023-07-24T02:20:32;17.30;;;6.18;;
36211;SDS011;22247;48.586;13.492;2023-07-24T02:22:57;14.05;;;6.43;;
36211;SDS011;22247;48.586;13.492;2023-07-24T02:25:22;14.65;;;7.05;;
36211;SDS011;22247;48.586;13.492;2023-07-24T02:27:47;15.70;;;6.90;;
36211;SDS011;22247;48.586;13.492;2023-07-24T02:30:14;17.05;;;6.93;;
36211;SDS011;22247;48.586;13.492;2023-07-24T02:35:07;16.02;;;6.07;;
36211;SDS011;22247;48.586;13.492;2023-07-24T02:37:32;15.88;;;6.78;;
36211;SDS011;22247;48.586;13.492;2023-07-24T02:42:22;15.80;;;7.00;;
36211;SDS011;22247;48.586;13.492;2023-07-24T02:44:47;16.10;;;7.53;;
36211;SDS011;22247;48.586;13.492;2023-07-24T02:49:37;15.13;;;6.80;;
36211;SDS011;22247;48.586;13.492;2023-07-24T02:54:27;13.67;;;6.30;;
36211;SDS011;22247;48.586;13.492;2023-07-24T02:56:52;16.25;;;6.93;;
36211;SDS011;22247;48.586;13.492;2023-07-24T02:59:19;13.82;;;6.53;;
36211;SDS011;22247;48.586;13.492;2023-07-24T03:04:09;15.47;;;7.43;;
36211;SDS011;22247;48.586;13.492;2023-07-24T03:06:34;17.85;;;7.05;;
36211;SDS011;22247;48.586;13.492;2023-07-24T03:08:59;16.20;;;6.50;;
36211;SDS011;22247;48.586;13.492;2023-07-24T03:11:24;15.00;;;6.78;;
36211;SDS011;22247;48.586;13.492;2023-07-24T03:16:14;17.83;;;7.40;;
36211;SDS011;22247;48.586;13.492;2023-07-24T03:18:41;15.98;;;7.57;;
36211;SDS011;22247;48.586;13.492;2023-07-24T03:23:31;16.37;;;7.33;;
36211;SDS011;22247;48.586;13.492;2023-07-24T03:28:21;16.33;;;7.40;;
36211;SDS011;22247;48.586;13.492;2023-07-24T03:33:10;14.90;;;6.80;;
36211;SDS011;22247;48.586;13.492;2023-07-24T03:35:36;13.85;;;6.70;;
36211;SDS011;22247;48.586;13.492;2023-07-24T03:40:28;13.30;;;5.97;;
36211;SDS011;22247;48.586;13.492;2023-07-24T03:42:56;17.10;;;7.22;;
36211;SDS011;22247;48.586;13.492;2023-07-24T03:47:45;18.77;;;6.87;;
36211;SDS011;22247;48.586;13.492;2023-07-24T03:52:36;15.27;;;6.85;;
36211;SDS011;22247;48.586;13.492;2023-07-24T03:55:01;15.25;;;7.05;;
36211;SDS011;22247;48.586;13.492;2023-07-24T03:57:28;15.25;;;6.63;;
36211;SDS011;22247;48.586;13.492;2023-07-24T03:59:53;17.33;;;7.05;;
36211;SDS011;22247;48.586;13.492;2023-07-24T04:04:43;15.43;;;6.40;;
36211;SDS011;22247;48.586;13.492;2023-07-24T04:07:08;21.08;;;6.97;;
36211;SDS011;22247;48.586;13.492;2023-07-24T04:11:58;13.67;;;6.60;;
36211;SDS011;22247;48.586;13.492;2023-07-24T04:16:48;14.07;;;6.53;;
36211;SDS011;22247;48.586;13.492;2023-07-24T04:19:13;33.85;;;6.95;;
36211;SDS011;22247;48.586;13.492;2023-07-24T04:21:38;17.40;;;7.05;;
36211;SDS011;22247;48.586;13.492;2023-07-24T04:26:28;17.17;;;7.43;;
36211;SDS011;22247;48.586;13.492;2023-07-24T04:28:53;16.58;;;7.15;;
36211;SDS011;22247;48.586;13.492;2023-07-24T04:31:20;16.35;;;6.63;;
36211;SDS011;22247;48.586;13.492;2023-07-24T04:33:45;18.65;;;7.72;;
36211;SDS011;22247;48.586;13.492;2023-07-24T04:38:35;17.60;;;6.87;;
36211;SDS011;22247;48.586;13.492;2023-07-24T04:43:26;16.95;;;7.07;;
36211;SDS011;22247;48.586;13.492;2023-07-24T04:48:16;16.60;;;7.47;;
36211;SDS011;22247;48.586;13.492;2023-07-24T04:53:05;16.53;;;7.77;;
36211;SDS011;22247;48.586;13.492;2023-07-24T04:55:31;16.75;;;8.05;;
36211;SDS011;22247;48.586;13.492;2023-07-24T05:00:21;28.47;;;9.33;;
36211;SDS011;22247;48.586;13.492;2023-07-24T05:02:46;17.80;;;8.20;;
36211;SDS011;22247;48.586;13.492;2023-07-24T05:05:13;18.27;;;8.02;;
36211;SDS011;22247;48.586;13.492;2023-07-24T05:07:38;17.50;;;7.30;;
36211;SDS011;22247;48.586;13.492;2023-07-24T05:10:05;17.27;;;7.88;;
36211;SDS011;22247;48.586;13.492;2023-07-24T05:12:30;19.95;;;6.30;;
36211;SDS011;22247;48.586;13.492;2023-07-24T05:14:58;16.92;;;7.00;;
36211;SDS011;22247;48.586;13.492;2023-07-24T05:17:23;19.70;;;6.95;;
36211;SDS011;22247;48.586;13.492;2023-07-24T05:19:50;17.13;;;8.18;;
36211;SDS011;22247;48.586;13.492;2023-07-24T05:22:15;15.18;;;6.60;;
36211;SDS011;22247;48.586;13.492;2023-07-24T05:24:40;17.48;;;6.82;;
36211;SDS011;22247;48.586;13.492;2023-07-24T05:27:05;15.90;;;7.15;;
36211;SDS011;22247;48.586;13.492;2023-07-24T05:29:31;17.70;;;7.93;;
36211;SDS011;22247;48.586;13.492;2023-07-24T05:31:56;21.27;;;8.27;;
36211;SDS011;22247;48.586;13.492;2023-07-24T05:34:23;16.10;;;7.20;;
36211;SDS011;22247;48.586;13.492;2023-07-24T05:36:48;22.95;;;8.18;;
36211;SDS011;22247;48.586;13.492;2023-07-24T05:41:38;16.43;;;7.57;;
36211;SDS011;22247;48.586;13.492;2023-07-24T05:44:03;15.93;;;7.60;;
36211;SDS011;22247;48.586;13.492;2023-07-24T05:46:28;16.33;;;8.38;;
36211;SDS011;22247;48.586;13.492;2023-07-24T05:48:53;16.92;;;7.75;;
36211;SDS011;22247;48.586;13.492;2023-07-24T05:51:20;15.43;;;7.82;;
36211;SDS011;22247;48.586;13.492;2023-07-24T05:53:46;17.33;;;8.00;;
36211;SDS011;22247;48.586;13.492;2023-07-24T05:56:11;15.35;;;7.45;;
36211;SDS011;22247;48.586;13.492;2023-07-24T05:58:36;17.98;;;7.90;;
36211;SDS011;22247;48.586;13.492;2023-07-24T06:01:01;15.70;;;8.05;;
36211;SDS011;22247;48.586;13.492;2023-07-24T06:03:26;17.63;;;7.78;;
36211;SDS011;22247;48.586;13.492;2023-07-24T06:05:54;16.67;;;7.53;;
36211;SDS011;22247;48.586;13.492;2023-07-24T06:08:19;18.40;;;7.18;;
36211;SDS011;22247;48.586;13.492;2023-07-24T06:10:48;19.00;;;7.38;;
36211;SDS011;22247;48.586;13.492;2023-07-24T06:13:13;51.53;;;16.90;;
36211;SDS011;22247;48.586;13.492;2023-07-24T06:15:48;15.30;;;7.35;;
36211;SDS011;22247;48.586;13.492;2023-07-24T06:18:13;21.88;;;8.85;;
36211;SDS011;22247;48.586;13.492;2023-07-24T06:20:38;19.25;;;8.18;;
36211;SDS011;22247;48.586;13.492;2023-07-24T06:23:03;16.67;;;7.70;;
36211;SDS011;22247;48.586;13.492;2023-07-24T06:25:28;19.60;;;7.75;;
36211;SDS011;22247;48.586;13.492;2023-07-24T06:27:53;14.82;;;7.10;;
36211;SDS011;22247;48.586;13.492;2023-07-24T06:30:18;13.65;;;7.43;;
36211;SDS011;22247;48.586;13.492;2023-07-24T06:32:45;13.48;;;6.82;;
36211;SDS011;22247;48.586;13.492;2023-07-24T06:35:10;16.95;;;7.63;;
36211;SDS011;22247;48.586;13.492;2023-07-24T06:37:35;14.93;;;7.55;;
36211;SDS011;22247;48.586;13.492;2023-07-24T06:40:06;17.63;;;8.02;;
36211;SDS011;22247;48.586;13.492;2023-07-24T06:42:34;19.00;;;7.47;;
36211;SDS011;22247;48.586;13.492;2023-07-24T06:44:59;18.48;;;7.45;;
36211;SDS011;22247;48.586;13.492;2023-07-24T06:47:24;16.30;;;7.82;;
36211;SDS011;22247;48.586;13.492;2023-07-24T06:49:49;14.65;;;6.97;;
36211;SDS011;22247;48.586;13.492;2023-07-24T06:52:14;14.73;;;7.53;;
36211;SDS011;22247;48.586;13.492;2023-07-24T06:54:39;19.00;;;8.10;;
36211;SDS011;22247;48.586;13.492;2023-07-24T06:57:06;15.02;;;7.50;;
36211;SDS011;22247;48.586;13.492;2023-07-24T06:59:31;13.57;;;7.22;;
36211;SDS011;22247;48.586;13.492;2023-07-24T07:01:57;18.15;;;7.95;;
36211;SDS011;22247;48.586;13.492;2023-07-24T07:04:22;12.77;;;7.10;;
36211;SDS011;22247;48.586;13.492;2023-07-24T07:06:49;16.50;;;7.93;;
36211;SDS011;22247;48.586;13.492;2023-07-24T07:09:14;16.00;;;8.00;;
36211;SDS011;22247;48.586;13.492;2023-07-24T07:11:39;13.57;;;7.45;;
36211;SDS011;22247;48.586;13.492;2023-07-24T07:14:04;14.23;;;6.97;;
36211;SDS011;22247;48.586;13.492;2023-07-24T07:16:32;13.55;;;6.88;;
36211;SDS011;22247;48.586;13.492;2023-07-24T07:18:57;14.57;;;7.25;;
36211;SDS011;22247;48.586;13.492;2023-07-24T07:21:22;16.50;;;7.72;;
36211;SDS011;22247;48.586;13.492;2023-07-24T07:23:47;14.35;;;7.90;;
36211;SDS011;22247;48.586;13.492;2023-07-24T07:26:15;14.00;;;7.22;;
36211;SDS011;22247;48.586;13.492;2023-07-24T07:28:40;15.73;;;7.53;;
36211;SDS011;22247;48.586;13.492;2023-07-24T07:31:08;15.25;;;7.20;;
36211;SDS011;22247;48.586;13.492;2023-07-24T07:33:33;14.32;;;7.22;;
36211;SDS011;22247;48.586;13.492;2023-07-24T07:35:58;14.60;;;7.55;;
36211;SDS011;22247;48.586;13.492;2023-07-24T07:38:23;12.93;;;7.13;;
36211;SDS011;22247;48.586;13.492;2023-07-24T07:40:48;15.27;;;7.53;;
36211;SDS011;22247;48.586;13.492;2023-07-24T07:43:16;13.30;;;6.82;;
36211;SDS011;22247;48.586;13.492;2023-07-24T07:45:41;11.90;;;7.43;;
36211;SDS011;22247;48.586;13.492;2023-07-24T07:48:06;14.18;;;6.85;;
36211;SDS011;22247;48.586;13.492;2023-07-24T07:50:31;13.43;;;7.00;;
36211;SDS011;22247;48.586;13.492;2023-07-24T07:52:56;12.80;;;6.47;;
36211;SDS011;22247;48.586;13.492;2023-07-24T07:55:21;14.35;;;7.40;;
36211;SDS011;22247;48.586;13.492;2023-07-24T07:57:46;15.27;;;7.03;;
36211;SDS011;22247;48.586;13.492;2023-07-24T08:00:11;12.90;;;7.50;;
36211;SDS011;22247;48.586;13.492;2023-07-24T08:02:36;14.40;;;7.07;;
36211;SDS011;22247;48.586;13.492;2023-07-24T08:05:03;15.43;;;7.13;;
36211;SDS011;22247;48.586;13.492;2023-07-24T08:07:30;14.55;;;7.97;;
36211;SDS011;22247;48.586;13.492;2023-07-24T08:09:55;15.07;;;7.30;;
36211;SDS011;22247;48.586;13.492;2023-07-24T08:12:20;16.73;;;7.70;;
36211;SDS011;22247;48.586;13.492;2023-07-24T08:14:45;12.20;;;7.15;;
36211;SDS011;22247;48.586;13.492;2023-07-24T08:17:10;16.85;;;7.10;;
36211;SDS011;22247;48.586;13.492;2023-07-24T08:19:35;13.10;;;6.88;;
36211;SDS011;22247;48.586;13.492;2023-07-24T08:22:00;12.88;;;7.03;;
36211;SDS011;22247;48.586;13.492;2023-07-24T08:24:25;11.18;;;6.65;;
36211;SDS011;22247;48.586;13.492;2023-07-24T08:26:50;14.75;;;7.38;;
36211;SDS011;22247;48.586;13.492;2023-07-24T08:29:15;13.05;;;7.43;;
36211;SDS011;22247;48.586;13.492;2023-07-24T08:31:40;16.15;;;7.22;;
36211;SDS011;22247;48.586;13.492;2023-07-24T08:34:05;12.23;;;7.32;;
36211;SDS011;22247;48.586;13.492;2023-07-24T08:36:30;14.40;;;7.32;;
36211;SDS011;22247;48.586;13.492;2023-07-24T08:38:56;11.27;;;7.07;;
36211;SDS011;22247;48.586;13.492;2023-07-24T08:41:25;12.85;;;7.32;;
36211;SDS011;22247;48.586;13.492;2023-07-24T08:43:50;16.70;;;7.55;;
36211;SDS011;22247;48.586;13.492;2023-07-24T08:46:20;13.43;;;7.15;;
36211;SDS011;22247;48.586;13.492;2023-07-24T08:48:45;12.05;;;7.18;;
36211;SDS011;22247;48.586;13.492;2023-07-24T08:51:11;13.35;;;6.75;;
36211;SDS011;22247;48.586;13.492;2023-07-24T08:53:37;12.75;;;7.25;;
36211;SDS011;22247;48.586;13.492;2023-07-24T08:56:05;10.63;;;6.40;;
36211;SDS011;22247;48.586;13.492;2023-07-24T08:58:31;12.57;;;6.65;;
36211;SDS011;22247;48.586;13.492;2023-07-24T09:01:01;13.00;;;7.00;;
36211;SDS011;22247;48.586;13.492;2023-07-24T09:03:28;9.93;;;6.43;;
36211;SDS011;22247;48.586;13.492;2023-07-24T09:05:56;10.27;;;6.22;;
36211;SDS011;22247;48.586;13.492;2023-07-24T09:08:31;10.75;;;6.85;;
36211;SDS011;22247;48.586;13.492;2023-07-24T09:13:21;15.60;;;6.95;;
36211;SDS011;22247;48.586;13.492;2023-07-24T09:15:46;11.15;;;6.80;;
36211;SDS011;22247;48.586;13.492;2023-07-24T09:18:14;11.52;;;6.85;;
36211;SDS011;22247;48.586;13.492;2023-07-24T09:20:41;13.45;;;6.50;;
36211;SDS011;22247;48.586;13.492;2023-07-24T09:23:06;14.68;;;5.97;;
36211;SDS011;22247;48.586;13.492;2023-07-24T09:25:35;10.55;;;6.03;;
36211;SDS011;22247;48.586;13.492;2023-07-24T09:28:00;16.70;;;7.28;;
36211;SDS011;22247;48.586;13.492;2023-07-24T09:30:26;19.27;;;7.45;;
36211;SDS011;22247;48.586;13.492;2023-07-24T09:32:51;16.60;;;6.68;;
36211;SDS011;22247;48.586;13.492;2023-07-24T09:35:17;11.57;;;6.78;;
36211;SDS011;22247;48.586;13.492;2023-07-24T09:37:42;13.82;;;7.05;;
36211;SDS011;22247;48.586;13.492;2023-07-24T09:40:10;12.45;;;7.25;;
36211;SDS011;22247;48.586;13.492;2023-07-24T09:42:38;13.35;;;7.22;;
36211;SDS011;22247;48.586;13.492;2023-07-24T09:45:04;20.80;;;7.47;;
36211;SDS011;22247;48.586;13.492;2023-07-24T09:47:30;14.18;;;8.35;;
36211;SDS011;22247;48.586;13.492;2023-07-24T09:49:55;15.07;;;7.80;;
36211;SDS011;22247;48.586;13.492;2023-07-24T09:52:20;17.35;;;8.15;;
36211;SDS011;22247;48.586;13.492;2023-07-24T09:54:55;15.00;;;7.78;;
36211;SDS011;22247;48.586;13.492;2023-07-24T09:57:22;13.70;;;7.70;;
36211;SDS011;22247;48.586;13.492;2023-07-24T09:59:51;17.23;;;6.97;;
36211;SDS011;22247;48.586;13.492;2023-07-24T10:02:17;15.70;;;7.13;;
36211;SDS011;22247;48.586;13.492;2023-07-24T10:04:42;15.45;;;7.22;;
36211;SDS011;22247;48.586;13.492;2023-07-24T10:07:08;11.98;;;5.97;;
36211;SDS011;22247;48.586;13.492;2023-07-24T10:09:36;11.38;;;5.60;;
36211;SDS011;22247;48.586;13.492;2023-07-24T10:12:01;11.52;;;6.05;;
36211;SDS011;22247;48.586;13.492;2023-07-24T10:14:26;11.25;;;5.63;;
36211;SDS011;22247;48.586;13.492;2023-07-24T10:16:53;9.82;;;5.60;;
36211;SDS011;22247;48.586;13.492;2023-07-24T10:19:19;11.95;;;5.80;;
36211;SDS011;22247;48.586;13.492;2023-07-24T10:21:46;9.52;;;5.10;;
36211;SDS011;22247;48.586;13.492;2023-07-24T10:24:11;9.73;;;5.22;;
36211;SDS011;22247;48.586;13.492;2023-07-24T10:26:36;14.20;;;6.03;;
36211;SDS011;22247;48.586;13.492;2023-07-24T10:29:01;10.10;;;5.65;;
36211;SDS011;22247;48.586;13.492;2023-07-24T10:31:26;9.88;;;5.60;;
36211;SDS011;22247;48.586;13.492;2023-07-24T10:33:52;9.88;;;5.88;;
36211;SDS011;22247;48.586;13.492;2023-07-24T10:36:20;11.98;;;6.30;;
36211;SDS011;22247;48.586;13.492;2023-07-24T10:38:51;13.05;;;6.18;;
36211;SDS011;22247;48.586;13.492;2023-07-24T10:41:17;13.15;;;6.28;;
36211;SDS011;22247;48.586;13.492;2023-07-24T10:43:43;9.55;;;5.88;;
36211;SDS011;22247;48.586;13.492;2023-07-24T10:46:08;13.18;;;6.53;;
36211;SDS011;22247;48.586;13.492;2023-07-24T10:48:33;10.50;;;6.15;;
36211;SDS011;22247;48.586;13.492;2023-07-24T10:50:58;11.85;;;5.93;;
36211;SDS011;22247;48.586;13.492;2023-07-24T10:53:23;11.93;;;6.32;;
36211;SDS011;22247;48.586;13.492;2023-07-24T10:55:48;11.98;;;6.60;;
36211;SDS011;22247;48.586;13.492;2023-07-24T10:58:14;9.40;;;5.43;;
36211;SDS011;22247;48.586;13.492;2023-07-24T11:00:39;11.68;;;5.75;;
36211;SDS011;22247;48.586;13.492;2023-07-24T11:03:05;8.77;;;5.70;;
36211;SDS011;22247;48.586;13.492;2023-07-24T11:05:30;9.80;;;6.07;;
36211;SDS011;22247;48.586;13.492;2023-07-24T11:07:55;10.50;;;5.75;;
36211;SDS011;22247;48.586;13.492;2023-07-24T11:10:20;11.73;;;6.85;;
36211;SDS011;22247;48.586;13.492;2023-07-24T11:12:46;12.50;;;6.28;;
36211;SDS011;22247;48.586;13.492;2023-07-24T11:15:11;9.35;;;5.82;;
36211;SDS011;22247;48.586;13.492;2023-07-24T11:17:37;13.23;;;5.88;;
36211;SDS011;22247;48.586;13.492;2023-07-24T11:20:07;8.77;;;5.70;;
36211;SDS011;22247;48.586;13.492;2023-07-24T11:22:33;10.82;;;6.13;;
36211;SDS011;22247;48.586;13.492;2023-07-24T11:24:58;10.90;;;5.78;;
36211;SDS011;22247;48.586;13.492;2023-07-24T11:27:25;11.00;;;6.38;;
36211;SDS011;22247;48.586;13.492;2023-07-24T11:29:50;9.95;;;6.05;;
36211;SDS011;22247;48.586;13.492;2023-07-24T11:32:19;10.60;;;6.00;;
36211;SDS011;22247;48.586;13.492;2023-07-24T11:34:44;11.63;;;6.53;;
36211;SDS011;22247;48.586;13.492;2023-07-24T11:37:12;10.50;;;6.18;;
36211;SDS011;22247;48.586;13.492;2023-07-24T11:39:38;11.20;;;6.50;;
36211;SDS011;22247;48.586;13.492;2023-07-24T11:42:03;10.57;;;6.28;;
36211;SDS011;22247;48.586;13.492;2023-07-24T11:44:28;13.63;;;6.35;;
36211;SDS011;22247;48.586;13.492;2023-07-24T11:47:02;9.70;;;6.05;;
36211;SDS011;22247;48.586;13.492;2023-07-24T11:49:28;9.55;;;5.93;;
36211;SDS011;22247;48.586;13.492;2023-07-24T11:52:02;9.88;;;6.18;;
36211;SDS011;22247;48.586;13.492;2023-07-24T11:54:27;12.27;;;5.60;;
36211;SDS011;22247;48.586;13.492;2023-07-24T11:56:52;10.93;;;6.00;;
36211;SDS011;22247;48.586;13.492;2023-07-24T11:59:17;11.75;;;6.22;;
36211;SDS011;22247;48.586;13.492;2023-07-24T12:01:46;12.45;;;6.20;;
36211;SDS011;22247;48.586;13.492;2023-07-24T12:04:14;10.93;;;6.07;;
36211;SDS011;22247;48.586;13.492;2023-07-24T12:06:42;10.15;;;6.15;;
36211;SDS011;22247;48.586;13.492;2023-07-24T12:09:07;8.80;;;5.70;;
36211;SDS011;22247;48.586;13.492;2023-07-24T12:11:32;10.38;;;5.93;;
36211;SDS011;22247;48.586;13.492;2023-07-24T12:13:57;10.23;;;6.38;;
36211;SDS011;22247;48.586;13.492;2023-07-24T12:16:22;9.23;;;5.30;;
36211;SDS011;22247;48.586;13.492;2023-07-24T12:18:47;8.48;;;5.35;;
36211;SDS011;22247;48.586;13.492;2023-07-24T12:21:12;9.73;;;5.78;;
36211;SDS011;22247;48.586;13.492;2023-07-24T12:23:37;9.07;;;5.80;;
36211;SDS011;22247;48.586;13.492;2023-07-24T12:26:02;10.38;;;6.15;;
36211;SDS011;22247;48.586;13.492;2023-07-24T12:28:29;10.20;;;5.25;;
36211;SDS011;22247;48.586;13.492;2023-07-24T12:30:54;12.68;;;5.28;;
36211;SDS011;22247;48.586;13.492;2023-07-24T12:33:19;10.30;;;5.80;;
36211;SDS011;22247;48.586;13.492;2023-07-24T12:35:47;11.48;;;5.53;;
36211;SDS011;22247;48.586;13.492;2023-07-24T12:38:12;8.95;;;5.32;;
36211;SDS011;22247;48.586;13.492;2023-07-24T12:40:37;9.50;;;5.15;;
36211;SDS011;22247;48.586;13.492;2023-07-24T12:43:02;11.45;;;5.13;;
36211;SDS011;22247;48.586;13.492;2023-07-24T12:45:27;7.72;;;4.72;;
36211;SDS011;22247;48.586;13.492;2023-07-24T12:47:52;8.63;;;5.05;;
36211;SDS011;22247;48.586;13.492;2023-07-24T12:50:19;10.50;;;6.32;;
36211;SDS011;22247;48.586;13.492;2023-07-24T12:52:44;9.63;;;5.88;;
36211;SDS011;22247;48.586;13.492;2023-07-24T12:55:09;9.52;;;5.63;;
36211;SDS011;22247;48.586;13.492;2023-07-24T12:57:34;13.32;;;5.55;;
36211;SDS011;22247;48.586;13.492;2023-07-24T13:00:02;8.75;;;5.70;;
36211;SDS011;22247;48.586;13.492;2023-07-24T13:02:28;10.38;;;5.50;;
36211;SDS011;22247;48.586;13.492;2023-07-24T13:04:53;8.45;;;5.25;;
36211;SDS011;22247;48.586;13.492;2023-07-24T13:07:18;7.72;;;5.28;;
36211;SDS011;22247;48.586;13.492;2023-07-24T13:09:43;11.65;;;6.00;;
36211;SDS011;22247;48.586;13.492;2023-07-24T13:12:08;11.10;;;5.82;;
36211;SDS011;22247;48.586;13.492;2023-07-24T13:14:34;10.38;;;5.82;;
36211;SDS011;22247;48.586;13.492;2023-07-24T13:16:59;10.18;;;5.47;;
36211;SDS011;22247;48.586;13.492;2023-07-24T13:19:24;9.98;;;6.10;;
36211;SDS011;22247;48.586;13.492;2023-07-24T13:21:51;9.35;;;5.60;;
36211;SDS011;22247;48.586;13.492;2023-07-24T13:24:16;10.02;;;5.13;;
36211;SDS011;22247;48.586;13.492;2023-07-24T13:26:41;8.75;;;4.88;;
36211;SDS011;22247;48.586;13.492;2023-07-24T13:29:08;7.10;;;4.85;;
36211;SDS011;22247;48.586;13.492;2023-07-24T13:31:33;7.57;;;4.85;;
36211;SDS011;22247;48.586;13.492;2023-07-24T13:34:01;8.75;;;5.13;;
36211;SDS011;22247;48.586;13.492;2023-07-24T13:36:26;7.38;;;4.68;;
36211;SDS011;22247;48.586;13.492;2023-07-24T13:38:51;7.53;;;4.82;;
36211;SDS011;22247;48.586;13.492;2023-07-24T13:41:16;7.55;;;4.90;;
36211;SDS011;22247;48.586;13.492;2023-07-24T13:43:41;7.05;;;4.90;;
36211;SDS011;22247;48.586;13.492;2023-07-24T13:46:06;9.43;;;5.20;;
36211;SDS011;22247;48.586;13.492;2023-07-24T13:48:32;8.35;;;4.90;;
36211;SDS011;22247;48.586;13.492;2023-07-24T13:50:57;8.55;;;5.03;;
36211;SDS011;22247;48.586;13.492;2023-07-24T13:53:24;7.82;;;5.15;;
36211;SDS011;22247;48.586;13.492;2023-07-24T13:55:50;8.57;;;4.90;;
36211;SDS011;22247;48.586;13.492;2023-07-24T13:58:15;9.85;;;5.07;;
36211;SDS011;22247;48.586;13.492;2023-07-24T14:00:40;7.28;;;4.30;;
36211;SDS011;22247;48.586;13.492;2023-07-24T14:03:05;7.50;;;4.80;;
36211;SDS011;22247;48.586;13.492;2023-07-24T14:05:30;8.93;;;4.65;;
36211;SDS011;22247;48.586;13.492;2023-07-24T14:07:56;8.20;;;4.75;;
36211;SDS011;22247;48.586;13.492;2023-07-24T14:10:21;8.23;;;5.10;;
36211;SDS011;22247;48.586;13.492;2023-07-24T14:12:46;7.15;;;4.43;;
36211;SDS011;22247;48.586;13.492;2023-07-24T14:15:11;7.20;;;4.50;;
36211;SDS011;22247;48.586;13.492;2023-07-24T14:17:36;11.95;;;4.68;;
36211;SDS011;22247;48.586;13.492;2023-07-24T14:20:02;9.15;;;4.43;;
36211;SDS011;22247;48.586;13.492;2023-07-24T14:22:27;10.23;;;4.85;;
36211;SDS011;22247;48.586;13.492;2023-07-24T14:24:52;11.73;;;5.05;;
36211;SDS011;22247;48.586;13.492;2023-07-24T14:27:17;14.20;;;5.20;;
36211;SDS011;22247;48.586;13.492;2023-07-24T14:29:42;10.27;;;4.88;;
36211;SDS011;22247;48.586;13.492;2023-07-24T14:32:10;9.93;;;4.75;;
36211;SDS011;22247;48.586;13.492;2023-07-24T14:34:35;9.48;;;5.00;;
36211;SDS011;22247;48.586;13.492;2023-07-24T14:37:00;8.75;;;4.65;;
36211;SDS011;22247;48.586;13.492;2023-07-24T14:39:27;9.25;;;4.75;;
36211;SDS011;22247;48.586;13.492;2023-07-24T14:41:52;9.35;;;4.20;;
36211;SDS011;22247;48.586;13.492;2023-07-24T14:44:17;9.45;;;4.97;;
36211;SDS011;22247;48.586;13.492;2023-07-24T14:46:42;9.25;;;4.60;;
36211;SDS011;22247;48.586;13.492;2023-07-24T14:49:07;8.20;;;4.82;;
36211;SDS011;22247;48.586;13.492;2023-07-24T14:51:32;9.73;;;5.38;;
36211;SDS011;22247;48.586;13.492;2023-07-24T14:54:00;10.82;;;5.38;;
36211;SDS011;22247;48.586;13.492;2023-07-24T14:56:25;8.65;;;4.95;;
36211;SDS011;22247;48.586;13.492;2023-07-24T14:58:50;8.57;;;4.95;;
36211;SDS011;22247;48.586;13.492;2023-07-24T15:01:15;9.48;;;4.68;;
36211;SDS011;22247;48.586;13.492;2023-07-24T15:03:40;9.85;;;4.97;;
36211;SDS011;22247;48.586;13.492;2023-07-24T15:06:05;8.00;;;5.00;;
36211;SDS011;22247;48.586;13.492;2023-07-24T15:08:32;7.43;;;4.30;;
36211;SDS011;22247;48.586;13.492;2023-07-24T15:10:57;7.55;;;4.68;;
36211;SDS011;22247;48.586;13.492;2023-07-24T15:13:24;7.55;;;4.25;;
36211;SDS011;22247;48.586;13.492;2023-07-24T15:15:49;7.07;;;3.90;;
36211;SDS011;22247;48.586;13.492;2023-07-24T15:18:17;10.23;;;4.38;;
36211;SDS011;22247;48.586;13.492;2023-07-24T15:20:42;7.93;;;4.68;;
36211;SDS011;22247;48.586;13.492;2023-07-24T15:23:07;7.28;;;4.13;;